Time;durP1;ratioP1;P1;durP2;ratioP2;P2;SDS_P1;SDS_P2;PMS_P1;PMS_P2;Temp;Humidity;BMP_temperature;BMP_pressure;BME280_temperature;BME280_humidity;BME280_pressure;Samples;Min_cycle;Max_cycle;Signal;HPM_P1;HPM_P2
2023/07/11 00:00:56;;;;;;;14.27;5.85;;;;;;;22.74;100.00;100381.19;5534969;32;34326;-60
2023/07/11 00:03:59;;;;;;;10.35;5.35;;;;;;;22.63;100.00;100385.56;5548327;32;34124;-60
2023/07/11 00:07:03;;;;;;;10.68;5.35;;;;;;;22.65;100.00;100379.94;5548787;32;33585;-60
2023/07/11 00:10:07;;;;;;;13.00;5.18;;;;;;;22.68;100.00;100380.25;5534908;32;33772;-60
2023/07/11 00:13:11;;;;;;;10.13;5.57;;;;;;;22.74;100.00;100378.47;5548364;32;33819;-60
2023/07/11 00:16:15;;;;;;;10.88;5.50;;;;;;;22.70;100.00;100382.72;5548349;32;32900;-59
2023/07/11 00:19:19;;;;;;;11.93;5.50;;;;;;;22.49;100.00;100381.56;5534693;32;33842;-60
2023/07/11 00:22:26;;;;;;;11.73;5.30;;;;;;;22.40;100.00;100389.25;5548267;32;33783;-60
2023/07/11 00:25:29;;;;;;;10.90;5.28;;;;;;;22.30;100.00;100375.56;5548275;32;33861;-60
2023/07/11 00:28:32;;;;;;;9.63;5.12;;;;;;;22.24;100.00;100368.44;5548159;32;33916;-60
2023/07/11 00:31:35;;;;;;;10.43;5.50;;;;;;;22.19;100.00;100375.63;5548296;32;34391;-60
2023/07/11 00:34:39;;;;;;;9.77;5.35;;;;;;;22.12;100.00;100380.38;5548390;32;33993;-59
2023/07/11 00:37:42;;;;;;;8.15;4.90;;;;;;;22.02;100.00;100368.34;5548606;32;34437;-59
2023/07/11 00:40:47;;;;;;;16.17;5.40;;;;;;;21.93;100.00;100361.66;5534545;32;33675;-59
2023/07/11 00:43:50;;;;;;;11.50;4.82;;;;;;;21.92;100.00;100365.41;5547967;32;33826;-60
2023/07/11 00:46:53;;;;;;;8.82;5.68;;;;;;;21.92;100.00;100367.31;5534681;32;33585;-60
2023/07/11 00:50:06;;;;;;;8.55;5.35;;;;;;;21.98;100.00;100360.94;5548456;32;34067;-60
2023/07/11 00:53:11;;;;;;;10.05;5.40;;;;;;;21.96;100.00;100363.91;5548041;32;34524;-59
2023/07/11 00:56:20;;;;;;;9.57;5.30;;;;;;;21.93;100.00;100363.53;5548081;32;33328;-60
2023/07/11 00:59:23;;;;;;;10.57;5.62;;;;;;;21.86;100.00;100365.56;5548048;32;34583;-60
2023/07/11 01:02:28;;;;;;;10.18;4.68;;;;;;;22.00;100.00;100366.94;5548068;32;34946;-59
2023/07/11 01:05:31;;;;;;;9.98;4.65;;;;;;;22.14;100.00;100360.16;5547711;32;35035;-60
2023/07/11 01:08:34;;;;;;;12.23;5.15;;;;;;;22.27;100.00;100353.62;5534155;32;34587;-60
2023/07/11 01:12:01;;;;;;;13.38;5.10;;;;;;;22.24;100.00;100356.81;5547982;32;33669;-60
2023/07/11 01:15:05;;;;;;;15.73;4.68;;;;;;;22.21;100.00;100349.19;5547951;32;33910;-60
2023/07/11 01:18:09;;;;;;;12.35;4.82;;;;;;;22.13;100.00;100355.81;5534326;32;33212;-59
2023/07/11 01:21:21;;;;;;;8.30;4.60;;;;;;;22.05;100.00;100351.63;5534142;32;34451;-59
2023/07/11 01:24:24;;;;;;;9.95;4.57;;;;;;;22.08;100.00;100344.91;5534112;32;33851;-60
2023/07/11 01:27:27;;;;;;;9.43;4.90;;;;;;;22.03;100.00;100355.63;5534257;32;33628;-60
2023/07/11 01:30:32;;;;;;;9.85;4.62;;;;;;;22.03;100.00;100352.94;5534603;32;33835;-60
2023/07/11 01:33:35;;;;;;;9.82;4.75;;;;;;;22.00;100.00;100359.66;5534014;32;33835;-60
2023/07/11 01:36:38;;;;;;;9.40;4.68;;;;;;;21.90;100.00;100345.94;5547588;32;34844;-60
2023/07/11 01:39:41;;;;;;;8.88;4.62;;;;;;;21.97;100.00;100343.13;5547996;32;33728;-59
2023/07/11 01:42:45;;;;;;;9.55;4.57;;;;;;;22.15;100.00;100345.59;5547520;32;34652;-60
2023/07/11 01:45:47;;;;;;;6.95;4.25;;;;;;;22.25;100.00;100345.75;5547746;32;33384;-60
2023/07/11 01:48:51;;;;;;;10.60;4.75;;;;;;;22.30;100.00;100332.34;5547548;32;33551;-60
2023/07/11 01:52:04;;;;;;;11.27;4.80;;;;;;;22.35;100.00;100329.72;5547400;32;35048;-59
2023/07/11 01:55:10;;;;;;;8.38;4.78;;;;;;;22.38;100.00;100329.22;5547360;32;34071;-60
2023/07/11 01:58:12;;;;;;;11.25;5.07;;;;;;;22.38;100.00;100328.37;5547408;32;33697;-60
2023/07/11 02:01:15;;;;;;;7.72;4.68;;;;;;;22.40;100.00;100332.50;5547404;32;33658;-60
2023/07/11 02:04:21;;;;;;;10.05;4.43;;;;;;;22.35;100.00;100331.59;5547237;32;33824;-59
2023/07/11 02:07:24;;;;;;;6.35;4.65;;;;;;;22.43;100.00;100329.28;5533432;32;33945;-60
2023/07/11 02:10:27;;;;;;;11.15;4.72;;;;;;;22.39;100.00;100328.16;5533786;32;34542;-60
2023/07/11 02:13:32;;;;;;;8.23;4.50;;;;;;;22.38;100.00;100328.37;5533713;32;34471;-60
2023/07/11 02:16:35;;;;;;;9.07;4.40;;;;;;;22.31;100.00;100323.16;5547106;32;33778;-60
2023/07/11 02:19:38;;;;;;;7.78;4.40;;;;;;;22.19;100.00;100330.53;5546434;32;33721;-60
2023/07/11 02:22:44;;;;;;;11.15;4.72;;;;;;;22.18;100.00;100331.56;5533727;32;33795;-59
2023/07/11 02:25:47;;;;;;;7.97;4.32;;;;;;;22.05;100.00;100324.63;5533361;32;33263;-60
2023/07/11 02:28:50;;;;;;;7.47;4.47;;;;;;;21.97;100.00;100330.44;5547136;32;33837;-60
2023/07/11 02:31:53;;;;;;;10.75;4.80;;;;;;;21.92;100.00;100322.19;5546734;32;34517;-60
2023/07/11 02:34:56;;;;;;;8.68;4.72;;;;;;;21.86;100.00;100323.16;5546760;32;33722;-60
2023/07/11 02:38:00;;;;;;;8.88;4.18;;;;;;;21.86;100.00;100322.34;5546599;32;34062;-60
2023/07/11 02:41:03;;;;;;;6.65;4.60;;;;;;;21.80;100.00;100320.59;5546693;32;33840;-60
2023/07/11 02:44:07;;;;;;;7.03;4.55;;;;;;;21.82;100.00;100316.62;5520146;32;34327;-60
2023/07/11 02:47:11;;;;;;;7.00;4.85;;;;;;;22.21;100.00;100314.87;5546594;32;33689;-60
2023/07/11 02:50:15;;;;;;;8.25;4.45;;;;;;;22.27;100.00;100313.88;5532946;32;34590;-60
2023/07/11 02:53:18;;;;;;;9.13;4.93;;;;;;;22.39;100.00;100317.34;5532808;32;33758;-61
2023/07/11 02:56:21;;;;;;;7.80;4.47;;;;;;;22.52;100.00;100311.59;5546441;32;34582;-60
2023/07/11 02:59:24;;;;;;;8.85;5.07;;;;;;;22.62;100.00;100316.31;5546514;32;33423;-60
2023/07/11 03:02:27;;;;;;;7.78;4.87;;;;;;;22.59;100.00;100319.53;5546362;32;33847;-60
2023/07/11 03:05:30;;;;;;;9.32;4.55;;;;;;;22.56;100.00;100317.31;5546420;32;35004;-60
2023/07/11 03:08:33;;;;;;;10.02;4.87;;;;;;;22.52;100.00;100319.69;5545911;32;34496;-61
2023/07/11 03:11:36;;;;;;;9.60;4.55;;;;;;;22.47;100.00;100321.50;5546293;32;33806;-60
2023/07/11 03:14:39;;;;;;;10.10;4.93;;;;;;;22.40;100.00;100315.47;5532198;32;33618;-61
2023/07/11 03:17:42;;;;;;;6.62;4.93;;;;;;;22.35;100.00;100312.69;5532187;32;34594;-62
2023/07/11 03:20:45;;;;;;;7.95;4.62;;;;;;;22.28;100.00;100320.94;5546225;32;34447;-61
2023/07/11 03:23:48;;;;;;;8.55;5.10;;;;;;;22.25;100.00;100326.84;5545987;32;33734;-60
2023/07/11 03:26:51;;;;;;;9.63;5.07;;;;;;;22.25;100.00;100324.13;5545838;32;33657;-61
2023/07/11 03:29:54;;;;;;;8.15;5.00;;;;;;;22.27;100.00;100319.28;5546541;32;33934;-60
2023/07/11 03:32:57;;;;;;;8.27;5.30;;;;;;;22.30;100.00;100324.22;5548797;32;33634;-60
2023/07/11 03:36:00;;;;;;;10.63;5.40;;;;;;;22.27;100.00;100329.31;5535137;32;33664;-62
2023/07/11 03:39:03;;;;;;;7.57;4.82;;;;;;;22.27;100.00;100319.28;5548616;32;34091;-59
2023/07/11 03:42:07;;;;;;;9.57;5.40;;;;;;;22.28;100.00;100331.75;5535133;32;34442;-60
2023/07/11 03:45:10;;;;;;;7.95;4.97;;;;;;;22.20;100.00;100340.28;5548420;32;34619;-60
2023/07/11 03:48:14;;;;;;;10.80;4.95;;;;;;;22.15;100.00;100345.59;5548933;32;34586;-60
2023/07/11 03:51:17;;;;;;;11.50;5.35;;;;;;;22.09;100.00;100349.25;5548584;32;32329;-60
2023/07/11 03:54:23;;;;;;;8.90;5.32;;;;;;;22.07;100.00;100351.41;5548598;32;33699;-60
2023/07/11 03:57:26;;;;;;;10.10;5.43;;;;;;;22.05;100.00;100353.50;5548610;32;32406;-60
2023/07/11 04:00:31;;;;;;;11.10;5.30;;;;;;;22.07;100.00;100351.41;5548620;32;34303;-60
2023/07/11 04:03:34;;;;;;;10.35;5.60;;;;;;;22.10;100.00;100354.44;5548583;32;33955;-60
2023/07/11 04:06:37;;;;;;;18.17;5.62;;;;;;;22.15;100.00;100359.09;5534802;32;33980;-60
2023/07/11 04:09:42;;;;;;;11.65;5.20;;;;;;;22.19;100.00;100364.81;5534648;32;33935;-60
2023/07/11 04:12:46;;;;;;;10.45;5.35;;;;;;;22.18;100.00;100358.59;5548324;32;34037;-60
2023/07/11 04:15:49;;;;;;;11.45;5.07;;;;;;;22.19;100.00;100367.53;5548513;32;33865;-60
2023/07/11 04:18:52;;;;;;;8.57;5.43;;;;;;;22.20;100.00;100355.66;5548293;32;34331;-60
2023/07/11 04:21:55;;;;;;;10.20;5.53;;;;;;;22.32;100.00;100375.31;5534605;32;34525;-60
2023/07/11 04:24:58;;;;;;;9.30;5.15;;;;;;;22.29;100.00;100367.69;5548316;32;34566;-60
2023/07/11 04:28:01;;;;;;;7.90;4.97;;;;;;;22.28;100.00;100377.69;5548255;32;33698;-60
2023/07/11 04:31:04;;;;;;;8.25;4.90;;;;;;;22.28;100.00;100374.16;5548422;32;34363;-59
2023/07/11 04:34:07;;;;;;;9.88;5.55;;;;;;;22.26;100.00;100368.19;5534475;32;35712;-62
2023/07/11 04:37:10;;;;;;;14.65;5.00;;;;;;;22.33;100.00;100368.84;5548279;32;33736;-62
2023/07/11 04:40:14;;;;;;;11.20;5.12;;;;;;;22.38;100.00;100371.63;5533807;32;34834;-62
2023/07/11 04:43:17;;;;;;;9.95;5.15;;;;;;;22.42;100.00;100375.47;5547996;32;33588;-62
2023/07/11 04:46:20;;;;;;;13.57;6.05;;;;;;;22.47;100.00;100370.16;5548091;32;33626;-62
2023/07/11 04:49:23;;;;;;;10.65;5.15;;;;;;;22.46;100.00;100363.13;5534185;32;33864;-62
2023/07/11 04:52:26;;;;;;;10.55;5.45;;;;;;;22.54;100.00;100365.41;5548007;32;34384;-60
2023/07/11 04:55:29;;;;;;;17.52;5.70;;;;;;;22.54;100.00;100363.53;5547896;32;33979;-60
2023/07/11 04:58:34;;;;;;;9.05;5.53;;;;;;;22.61;100.00;100367.97;5534197;32;33874;-60
2023/07/11 05:01:36;;;;;;;13.62;5.97;;;;;;;22.59;100.00;100379.03;5547948;32;33873;-61
2023/07/11 05:04:40;;;;;;;11.05;5.15;;;;;;;22.69;100.00;100375.66;5534242;32;34246;-60
2023/07/11 05:07:43;;;;;;;13.23;5.78;;;;;;;22.80;100.00;100375.56;5547344;32;34483;-60
2023/07/11 05:11:01;;;;;;;11.20;5.37;;;;;;;22.84;100.00;100375.94;5533479;32;33963;-61
2023/07/11 05:14:04;;;;;;;11.18;5.35;;;;;;;22.85;100.00;100388.38;5533669;32;33978;-60
2023/07/11 05:17:07;;;;;;;11.18;5.72;;;;;;;22.88;100.00;100377.06;5547806;32;33271;-61
2023/07/11 05:20:11;;;;;;;9.77;5.82;;;;;;;22.95;100.00;100383.91;5533829;32;33554;-61
2023/07/11 05:23:14;;;;;;;8.77;5.32;;;;;;;23.05;100.00;100380.53;5533769;32;34447;-62
2023/07/11 05:26:18;;;;;;;11.95;5.65;;;;;;;23.12;100.00;100383.91;5547292;32;34831;-61
2023/07/11 05:29:21;;;;;;;10.27;5.20;;;;;;;23.28;100.00;100382.22;5533785;32;33659;-61
2023/07/11 05:32:24;;;;;;;19.55;5.80;;;;;;;23.34;100.00;100382.00;5546223;32;33636;-60
2023/07/11 05:35:27;;;;;;;11.63;5.68;;;;;;;23.43;100.00;100387.00;5544121;32;34579;-61
2023/07/11 05:38:54;;;;;;;7.47;5.07;;;;;;;23.46;100.00;100381.12;5530630;32;34575;-61
2023/07/11 05:41:57;;;;;;;9.38;5.70;;;;;;;23.54;100.00;100397.72;5544576;32;34095;-62
2023/07/11 05:45:00;;;;;;;9.07;5.47;;;;;;;23.67;100.00;100391.12;5531884;32;33788;-60
2023/07/11 05:48:04;;;;;;;11.82;4.97;;;;;;;23.81;100.00;100395.09;5546923;32;33668;-61
2023/07/11 05:51:14;;;;;;;11.32;5.70;;;;;;;23.88;100.00;100392.97;5546997;32;33355;-62
2023/07/11 05:54:17;;;;;;;11.60;5.50;;;;;;;23.80;100.00;100401.56;5544983;32;33916;-62
2023/07/11 05:57:20;;;;;;;12.43;4.78;;;;;;;23.75;100.00;100396.91;5532340;32;34182;-61
2023/07/11 06:00:23;;;;;;;11.02;4.95;;;;;;;23.98;100.00;100394.97;5546918;32;33881;-61
2023/07/11 06:03:29;;;;;;;10.57;4.85;;;;;;;24.12;100.00;100401.62;5546882;32;33679;-61
2023/07/11 06:06:41;;;;;;;11.18;4.90;;;;;;;24.25;100.00;100403.97;5533307;32;33806;-61
2023/07/11 06:09:45;;;;;;;8.75;4.93;;;;;;;24.45;100.00;100411.44;5546421;32;34538;-61
2023/07/11 06:12:48;;;;;;;14.60;5.00;;;;;;;24.33;98.78;100408.91;5545372;32;33498;-61
2023/07/11 06:15:59;;;;;;;11.30;5.10;;;;;;;24.44;98.25;100416.06;5543634;32;33829;-61
2023/07/11 06:19:04;;;;;;;13.25;5.18;;;;;;;24.65;97.17;100422.47;5529391;32;34694;-61
2023/07/11 06:22:07;;;;;;;8.05;4.97;;;;;;;24.71;96.22;100418.72;5531842;32;33690;-62
2023/07/11 06:25:10;;;;;;;12.07;4.62;;;;;;;24.83;94.76;100421.25;5532937;32;33658;-61
2023/07/11 06:28:14;;;;;;;12.07;5.10;;;;;;;24.83;94.52;100411.22;5545151;32;33919;-60
2023/07/11 06:31:16;;;;;;;13.60;4.53;;;;;;;24.89;93.63;100404.78;5540922;32;34130;-61
2023/07/11 06:34:20;;;;;;;10.50;5.22;;;;;;;25.00;90.48;100405.66;5542180;32;33374;-61
2023/07/11 06:37:23;;;;;;;13.50;5.28;;;;;;;25.06;91.31;100415.47;5546700;32;34435;-61
2023/07/11 06:40:25;;;;;;;9.30;4.93;;;;;;;25.11;89.80;100404.66;5546303;32;33837;-61
2023/07/11 06:43:29;;;;;;;10.50;4.87;;;;;;;25.23;90.02;100409.84;5532185;32;33058;-60
2023/07/11 06:46:34;;;;;;;12.15;4.90;;;;;;;25.50;88.14;100411.38;5544754;32;33585;-61
2023/07/11 06:49:37;;;;;;;8.35;5.32;;;;;;;25.50;87.22;100405.94;5546013;32;33872;-61
2023/07/11 06:52:40;;;;;;;10.63;5.10;;;;;;;25.69;84.10;100411.75;5537877;32;33588;-63
2023/07/11 06:55:51;;;;;;;11.57;5.30;;;;;;;25.45;85.90;100405.09;5546162;32;33625;-61
2023/07/11 06:58:54;;;;;;;9.20;4.40;;;;;;;25.63;85.48;100411.97;5545998;32;34124;-61
2023/07/11 07:01:57;;;;;;;11.07;5.00;;;;;;;25.98;81.97;100412.09;5532131;32;33892;-61
2023/07/11 07:05:00;;;;;;;7.22;5.03;;;;;;;25.92;83.29;100414.00;5546845;32;33887;-62
2023/07/11 07:08:04;;;;;;;19.10;5.50;;;;;;;25.80;83.37;100416.13;5548340;32;33550;-61
2023/07/11 07:11:17;;;;;;;10.65;4.95;;;;;;;25.87;82.55;100418.59;5535734;32;33659;-60
2023/07/11 07:14:22;;;;;;;11.25;5.03;;;;;;;26.02;80.92;100426.78;5548254;32;34125;-62
2023/07/11 07:17:26;;;;;;;14.05;5.40;;;;;;;25.92;81.39;100413.16;5548451;32;34103;-61
2023/07/11 07:20:29;;;;;;;9.85;4.82;;;;;;;26.08;78.93;100427.63;5543188;32;34602;-61
2023/07/11 07:23:35;;;;;;;9.93;5.07;;;;;;;26.49;77.33;100420.34;5539726;32;34504;-61
2023/07/11 07:26:38;;;;;;;12.32;5.57;;;;;;;26.77;74.32;100433.44;5541389;32;33868;-62
2023/07/11 07:29:42;;;;;;;10.23;5.15;;;;;;;26.98;72.95;100423.34;5541601;32;33701;-62
2023/07/11 07:32:45;;;;;;;10.30;4.93;;;;;;;27.08;71.44;100428.78;5528064;32;33793;-61
2023/07/11 07:35:49;;;;;;;19.77;5.35;;;;;;;27.15;70.81;100426.59;5545597;32;33889;-61
2023/07/11 07:38:52;;;;;;;16.27;5.10;;;;;;;27.49;67.29;100429.53;5541822;32;34335;-62
2023/07/11 07:41:56;;;;;;;8.90;4.53;;;;;;;27.79;64.40;100429.38;5541640;32;33316;-61
2023/07/11 07:44:59;;;;;;;10.57;4.50;;;;;;;28.53;61.47;100431.13;5544925;32;34317;-61
2023/07/11 07:48:02;;;;;;;6.28;4.30;;;;;;;28.29;60.11;100424.75;5543193;32;33427;-61
2023/07/11 07:51:11;;;;;;;10.85;4.90;;;;;;;28.25;60.66;100429.97;5542299;32;33812;-62
2023/07/11 07:54:14;;;;;;;;;;;;;;;28.58;58.92;100422.06;5524602;32;32704;-61
2023/07/11 07:57:16;;;;;;;15.15;4.65;;;;;;;29.09;57.55;100423.28;5533278;32;34391;-62
2023/07/11 08:00:23;;;;;;;14.77;4.82;;;;;;;29.48;56.50;100419.59;5527501;32;34508;-61
2023/07/11 08:03:38;;;;;;;60.33;7.00;;;;;;;29.81;54.64;100415.88;5526324;32;34448;-61
2023/07/11 08:06:41;;;;;;;10.38;4.60;;;;;;;30.59;53.75;100420.78;5526433;32;33310;-61
2023/07/11 08:09:46;;;;;;;6.03;4.65;;;;;;;30.37;52.61;100420.56;5545293;32;32752;-62
2023/07/11 08:12:49;;;;;;;8.43;4.30;;;;;;;30.64;51.83;100429.69;5534646;32;34683;-61
2023/07/11 08:15:52;;;;;;;11.40;5.00;;;;;;;29.39;52.14;100426.81;5536928;32;33829;-61
2023/07/11 08:18:55;;;;;;;10.18;5.07;;;;;;;29.38;52.16;100426.00;5538023;32;33823;-61
2023/07/11 08:21:58;;;;;;;8.38;4.85;;;;;;;30.23;50.51;100432.25;5543796;32;34247;-62
2023/07/11 08:25:01;;;;;;;5.85;4.47;;;;;;;29.21;51.20;100433.78;5538014;32;33993;-62
2023/07/11 08:28:04;;;;;;;7.80;4.65;;;;;;;29.00;51.60;100426.94;5533222;32;33853;-62
2023/07/11 08:31:07;;;;;;;11.30;4.87;;;;;;;28.83;50.54;100427.34;5527686;32;34231;-61
2023/07/11 08:34:10;;;;;;;7.47;4.45;;;;;;;28.69;51.19;100429.91;5543672;32;34046;-62
2023/07/11 08:37:13;;;;;;;10.95;4.65;;;;;;;28.98;50.97;100432.66;5540137;32;33425;-61
2023/07/11 08:40:25;;;;;;;7.60;4.95;;;;;;;28.88;50.91;100428.13;5542618;32;35218;-63
2023/07/11 08:43:49;;;;;;;6.03;4.78;;;;;;;29.34;49.82;100438.59;5540454;32;33123;-62
2023/07/11 08:47:03;;;;;;;21.62;4.93;;;;;;;29.70;48.78;100436.25;5532666;32;34082;-63
2023/07/11 08:50:20;;;;;;;7.00;4.50;;;;;;;30.65;46.63;100444.22;5547243;32;34446;-63
2023/07/11 08:53:33;;;;;;;9.57;4.93;;;;;;;30.64;46.66;100437.13;5545915;32;34963;-64
2023/07/11 08:56:43;;;;;;;12.05;4.55;;;;;;;30.75;45.76;100444.03;5545174;32;33880;-64
2023/07/11 09:00:12;;;;;;;9.43;4.75;;;;;;;30.61;46.56;100448.66;5524528;32;33833;-63
2023/07/11 09:03:26;;;;;;;9.38;4.90;;;;;;;29.99;46.46;100445.19;5514337;32;33666;-63
2023/07/11 09:06:37;;;;;;;9.73;4.55;;;;;;;30.29;45.09;100457.63;5533603;32;33710;-63
2023/07/11 09:09:41;;;;;;;12.68;4.75;;;;;;;31.29;42.78;100456.25;5533674;32;33429;-63
2023/07/11 09:13:30;;;;;;;8.23;4.53;;;;;;;30.83;45.14;100456.25;5554293;32;33688;-63
2023/07/11 09:16:42;;;;;;;17.62;4.82;;;;;;;30.48;45.42;100449.44;5540857;32;32652;-63
2023/07/11 09:19:49;;;;;;;6.20;4.95;;;;;;;32.64;40.92;100453.63;5548350;32;34474;-63
2023/07/11 09:23:18;;;;;;;7.80;4.30;;;;;;;32.46;39.19;100457.34;5529100;32;33830;-64
2023/07/11 09:26:47;;;;;;;22.02;5.40;;;;;;;32.39;40.09;100460.53;5535243;32;33520;-63
2023/07/11 09:29:52;;;;;;;30.17;5.50;;;;;;;33.57;39.54;100444.28;5523111;32;34150;-63
2023/07/11 09:33:14;;;;;;;7.55;4.50;;;;;;;34.45;38.37;100435.84;5537162;32;34271;-66
2023/07/11 09:36:32;;;;;;;11.73;4.65;;;;;;;34.26;38.21;100443.63;5533675;32;33878;-64
2023/07/11 09:39:49;;;;;;;5.62;4.20;;;;;;;35.64;35.89;100455.13;5543667;32;33459;-64
2023/07/11 09:42:54;;;;;;;5.93;4.70;;;;;;;33.54;38.08;100449.63;5531858;32;34507;-64
2023/07/11 09:45:58;;;;;;;13.10;4.68;;;;;;;33.52;38.73;100438.94;5540410;32;33971;-62
2023/07/11 09:49:03;;;;;;;6.93;4.68;;;;;;;35.25;36.04;100440.56;5546961;32;35543;-64
2023/07/11 09:52:13;;;;;;;7.72;4.20;;;;;;;34.01;36.91;100437.75;5524206;32;34917;-62
2023/07/11 09:55:24;;;;;;;9.60;4.70;;;;;;;34.10;36.88;100428.69;5533600;32;34292;-65
2023/07/11 09:58:31;;;;;;;6.03;4.47;;;;;;;33.31;37.32;100426.09;5527957;32;33085;-64
2023/07/11 10:01:38;;;;;;;9.48;4.70;;;;;;;32.87;37.98;100430.53;5545880;32;33908;-64
2023/07/11 10:04:42;;;;;;;8.18;5.03;;;;;;;34.46;35.63;100423.69;5540005;32;33775;-62
2023/07/11 10:08:18;;;;;;;8.50;4.78;;;;;;;32.34;38.78;100424.94;5533176;32;34437;-64
2023/07/11 10:11:22;;;;;;;10.82;4.78;;;;;;;34.00;36.12;100424.31;5530716;32;34363;-64
2023/07/11 10:14:32;;;;;;;10.32;4.87;;;;;;;34.23;36.54;100419.50;5530208;32;33514;-63
2023/07/11 10:17:36;;;;;;;7.57;4.82;;;;;;;36.16;34.13;100430.81;5532955;32;33184;-64
2023/07/11 10:20:45;;;;;;;11.52;5.20;;;;;;;34.85;36.00;100428.19;5541937;32;33612;-63
2023/07/11 10:23:48;;;;;;;;;;;;;;;33.97;37.66;100436.78;5536760;32;33973;-65
2023/07/11 10:27:09;;;;;;;13.23;4.75;;;;;;;34.57;37.30;100433.22;5525218;32;33744;-64
2023/07/11 10:30:21;;;;;;;8.05;5.00;;;;;;;34.37;37.60;100428.41;5546447;32;33996;-64
2023/07/11 10:33:33;;;;;;;7.82;4.97;;;;;;;34.03;38.65;100429.19;5533056;32;33572;-63
2023/07/11 10:37:04;;;;;;;9.38;4.75;;;;;;;34.96;36.41;100425.88;5546229;32;33847;-65
2023/07/11 10:40:21;;;;;;;10.45;5.20;;;;;;;35.11;36.34;100428.91;5547904;32;34524;-64
2023/07/11 10:43:28;;;;;;;;;;;;;;;35.03;36.37;100423.44;5531414;32;33093;-63
2023/07/11 10:46:41;;;;;;;7.85;5.05;;;;;;;35.48;34.69;100426.50;5548902;32;34773;-65
2023/07/11 10:49:50;;;;;;;8.63;5.25;;;;;;;36.26;33.37;100433.19;5547972;32;34840;-64
2023/07/11 10:52:59;;;;;;;10.48;5.03;;;;;;;35.41;34.69;100428.97;5548069;32;33665;-63
2023/07/11 10:56:14;;;;;;;6.53;4.40;;;;;;;36.65;33.44;100412.47;5530668;32;34509;-66
2023/07/11 10:59:22;;;;;;;11.57;5.10;;;;;;;37.35;32.04;100421.62;5527690;32;33075;-61
2023/07/11 11:03:02;;;;;;;7.03;4.70;;;;;;;37.25;32.26;100413.78;5530163;32;33817;-64
2023/07/11 11:06:50;;;;;;;8.40;5.10;;;;;;;37.12;30.65;100412.97;5519032;32;34292;-64
2023/07/11 11:10:09;;;;;;;6.85;4.85;;;;;;;36.16;31.81;100408.72;5529974;32;34179;-64
2023/07/11 11:13:30;;;;;;;7.87;4.70;;;;;;;34.76;33.85;100397.09;5542006;32;33595;-63
2023/07/11 11:16:48;;;;;;;10.82;4.90;;;;;;;37.27;30.83;100412.28;5543480;32;33790;-61
2023/07/11 11:19:56;;;;;;;9.25;5.00;;;;;;;37.04;30.39;100408.28;5543900;32;35361;-61
2023/07/11 11:23:22;;;;;;;11.30;5.03;;;;;;;35.95;31.57;100391.31;5541869;32;35136;-62
2023/07/11 11:26:30;;;;;;;9.32;5.03;;;;;;;35.99;32.04;100387.53;5542973;32;34930;-61
2023/07/11 11:29:51;;;;;;;7.47;5.30;;;;;;;36.62;31.12;100390.25;5542678;32;33985;-63
2023/07/11 11:33:05;;;;;;;8.70;5.40;;;;;;;36.25;31.54;100390.13;5529591;32;33711;-63
2023/07/11 11:36:11;;;;;;;9.32;4.93;;;;;;;38.68;28.55;100388.03;5541586;32;33800;-62
2023/07/11 11:39:43;;;;;;;9.02;5.32;;;;;;;39.60;27.38;100383.22;5541573;32;33693;-62
2023/07/11 11:42:52;;;;;;;7.28;5.30;;;;;;;36.68;30.87;100381.41;5541696;32;33831;-62
2023/07/11 11:46:07;;;;;;;10.88;5.53;;;;;;;35.80;32.31;100369.81;5542047;32;34054;-63
2023/07/11 11:49:15;;;;;;;10.70;5.55;;;;;;;37.00;30.97;100383.28;5526513;32;34525;-63
2023/07/11 11:52:23;;;;;;;7.13;5.43;;;;;;;34.79;34.04;100374.38;5541065;32;32947;-62
2023/07/11 11:55:36;;;;;;;;;;;;;;;36.88;31.96;100365.91;5543820;32;34651;-62
2023/07/11 11:59:04;;;;;;;9.07;5.80;;;;;;;36.65;32.07;100362.72;5529123;32;33888;-63
2023/07/11 12:02:25;;;;;;;10.55;5.28;;;;;;;37.14;31.35;100362.81;5529405;32;34131;-63
2023/07/11 12:05:33;;;;;;;10.20;5.53;;;;;;;37.14;31.81;100351.75;5542381;32;34622;-62
2023/07/11 12:08:37;;;;;;;9.10;5.57;;;;;;;36.45;32.29;100366.34;5526737;32;35269;-61
2023/07/11 12:12:04;;;;;;;11.35;5.32;;;;;;;38.54;29.36;100353.59;5529234;32;33832;-63
2023/07/11 12:15:10;;;;;;;6.82;5.10;;;;;;;38.81;28.43;100366.59;5530243;32;33707;-63
2023/07/11 12:18:39;;;;;;;10.55;5.40;;;;;;;38.70;28.23;100351.63;5529604;32;33857;-62
2023/07/11 12:21:45;;;;;;;8.52;5.28;;;;;;;37.72;29.38;100354.00;5543290;32;34600;-64
2023/07/11 12:25:07;;;;;;;6.65;5.25;;;;;;;36.84;30.40;100357.47;5543034;32;33687;-64
2023/07/11 12:28:22;;;;;;;8.07;5.32;;;;;;;38.10;29.58;100353.53;5529727;32;33657;-63
2023/07/11 12:31:31;;;;;;;8.45;5.18;;;;;;;38.83;27.74;100352.37;5543393;32;33363;-64
2023/07/11 12:34:42;;;;;;;10.18;5.90;;;;;;;38.07;28.58;100345.94;5543501;32;32583;-63
2023/07/11 12:37:58;;;;;;;8.93;5.10;;;;;;;38.00;28.48;100342.19;5542518;32;34633;-65
2023/07/11 12:41:25;;;;;;;12.23;5.50;;;;;;;39.82;26.69;100340.88;5528694;32;34442;-63
2023/07/11 12:44:47;;;;;;;7.97;5.90;;;;;;;38.39;27.89;100335.75;5530854;32;33740;-63
2023/07/11 12:48:14;;;;;;;10.30;5.30;;;;;;;38.78;27.83;100331.22;5542230;32;33217;-63
2023/07/11 12:51:31;;;;;;;10.13;6.15;;;;;;;41.66;25.02;100332.97;5528244;32;33842;-65
2023/07/11 12:54:36;;;;;;;8.57;6.15;;;;;;;40.51;26.32;100327.94;5542832;32;33774;-64
2023/07/11 12:57:44;;;;;;;9.52;6.15;;;;;;;42.11;24.53;100328.37;5542498;32;34924;-64
2023/07/11 13:00:49;;;;;;;8.55;5.87;;;;;;;39.21;27.22;100324.81;5529169;32;33458;-63
2023/07/11 13:03:52;;;;;;;7.62;6.03;;;;;;;39.59;26.49;100328.84;5543885;32;34061;-64
2023/07/11 13:06:57;;;;;;;8.90;6.03;;;;;;;40.46;25.66;100342.16;5547521;32;34915;-63
2023/07/11 13:10:01;;;;;;;14.48;6.80;;;;;;;39.34;27.12;100333.84;5547299;32;35681;-64
2023/07/11 13:13:11;;;;;;;11.70;6.47;;;;;;;38.51;28.17;100318.25;5525888;32;33656;-63
2023/07/11 13:16:15;;;;;;;10.27;6.07;;;;;;;41.16;25.39;100331.44;5526889;32;33843;-64
2023/07/11 13:19:21;;;;;;;10.80;6.25;;;;;;;41.19;25.34;100323.16;5528249;32;33452;-63
2023/07/11 13:22:24;;;;;;;9.35;7.10;;;;;;;41.46;24.76;100312.81;5534875;32;32422;-64
2023/07/11 13:25:33;;;;;;;16.60;6.62;;;;;;;42.10;23.45;100324.78;5546006;32;34507;-63
2023/07/11 13:28:39;;;;;;;8.55;6.47;;;;;;;42.18;23.57;100315.31;5539250;32;34456;-63
2023/07/11 13:31:42;;;;;;;13.57;6.45;;;;;;;39.04;26.18;100314.06;5547448;32;33860;-64
2023/07/11 13:35:06;;;;;;;13.23;6.82;;;;;;;39.35;25.90;100316.03;5522995;32;33889;-63
2023/07/11 13:38:12;;;;;;;17.58;6.28;;;;;;;38.52;27.11;100311.56;5546225;32;34216;-63
2023/07/11 13:41:26;;;;;;;20.42;6.35;;;;;;;38.35;27.55;100312.66;5527033;32;33615;-63
2023/07/11 13:44:45;;;;;;;7.80;6.12;;;;;;;40.32;25.22;100320.47;5513400;32;33947;-64
2023/07/11 13:47:49;;;;;;;23.48;6.93;;;;;;;40.33;25.17;100306.16;5524953;32;34945;-63
2023/07/11 13:51:17;;;;;;;8.65;6.30;;;;;;;40.52;24.38;100313.69;5546461;32;35224;-63
2023/07/11 13:54:29;;;;;;;11.32;7.43;;;;;;;38.52;26.62;100300.47;5546536;32;34444;-64
2023/07/11 13:57:32;;;;;;;10.27;7.03;;;;;;;36.62;27.26;100299.84;5532763;32;34410;-63
2023/07/11 14:00:36;;;;;;;17.40;6.95;;;;;;;37.05;26.59;100296.50;5541090;32;34634;-64
2023/07/11 14:03:40;;;;;;;10.43;7.28;;;;;;;38.17;25.45;100295.56;5545693;32;33842;-64
2023/07/11 14:06:43;;;;;;;10.38;7.18;;;;;;;38.17;24.99;100292.81;5546223;32;34467;-63
2023/07/11 14:09:46;;;;;;;10.73;6.65;;;;;;;37.33;25.99;100296.62;5528425;32;34005;-62
2023/07/11 14:12:50;;;;;;;12.30;7.90;;;;;;;38.03;25.67;100303.50;5518321;32;34470;-62
2023/07/11 14:15:56;;;;;;;12.40;6.75;;;;;;;37.10;25.87;100301.03;5530712;32;33505;-62
2023/07/11 14:18:59;;;;;;;10.57;7.18;;;;;;;38.36;25.19;100296.84;5531381;32;33899;-64
2023/07/11 14:22:18;;;;;;;11.50;6.75;;;;;;;36.74;27.06;100297.09;5538747;32;33703;-65
2023/07/11 14:25:24;;;;;;;22.25;7.32;;;;;;;35.25;29.46;100288.03;5539228;32;33835;-63